createdAt,value
2017-08-08T00:00:28.537Z,14.9
2017-08-08T00:01:28.581Z,14.95
2017-08-08T00:02:28.593Z,14.9
2017-08-08T00:03:28.667Z,14.94
2017-08-08T00:04:28.676Z,14.94
2017-08-08T00:05:28.707Z,14.93
2017-08-08T00:06:28.733Z,14.94
2017-08-08T00:07:28.794Z,14.8
2017-08-08T00:08:28.535Z,14.89
2017-08-08T00:09:28.523Z,14.8
2017-08-08T00:10:28.896Z,14.8
2017-08-08T00:11:28.917Z,14.74
2017-08-08T00:12:28.653Z,14.77
2017-08-08T00:13:29.330Z,14.74
2017-08-08T00:14:29.393Z,14.77
2017-08-08T00:15:29.065Z,14.64
2017-08-08T00:16:29.725Z,14.71
2017-08-08T00:17:29.777Z,14.64
2017-08-08T00:18:29.804Z,14.57
2017-08-08T00:19:29.829Z,14.56
2017-08-08T00:20:29.863Z,14.59
2017-08-08T00:21:29.922Z,14.45
2017-08-08T00:22:29.936Z,14.46
2017-08-08T00:23:29.968Z,14.53
2017-08-08T00:24:29.996Z,14.41
2017-08-08T00:25:30.038Z,14.44
2017-08-08T00:26:30.063Z,14.38
2017-08-08T00:27:30.403Z,14.38
2017-08-08T00:28:30.448Z,14.36
2017-08-08T00:29:30.127Z,14.26
2017-08-08T00:30:30.468Z,14.27
2017-08-08T00:31:31.129Z,14.33
2017-08-08T00:32:31.409Z,14.21
2017-08-08T00:33:31.513Z,14.19
2017-08-08T00:34:31.540Z,14.24
2017-08-08T00:35:31.536Z,14.2
2017-08-08T00:36:31.567Z,14.15
2017-08-08T00:37:31.632Z,14.24
2017-08-08T00:38:31.691Z,14.2
2017-08-08T00:39:32.013Z,14.21
2017-08-08T00:40:32.034Z,14.15
2017-08-08T00:41:32.086Z,14.2
2017-08-08T00:42:32.121Z,14.16
2017-08-08T00:43:31.833Z,14.08
2017-08-08T00:44:31.871Z,14.13
2017-08-08T00:45:31.874Z,14.11
2017-08-08T00:46:32.244Z,14.03
2017-08-08T00:47:32.304Z,14.01
2017-08-08T00:48:32.038Z,14.03
2017-08-08T00:49:32.359Z,14.03
2017-08-08T00:50:32.088Z,14.03
2017-08-08T00:51:32.457Z,14.01
2017-08-08T00:52:32.142Z,14.06
2017-08-08T00:53:32.507Z,14.02
2017-08-08T00:54:32.534Z,14.06
2017-08-08T00:55:32.547Z,14.09
2017-08-08T00:56:32.594Z,14.15
2017-08-08T00:57:32.316Z,14.15
2017-08-08T00:58:32.987Z,14.12
2017-08-08T00:59:32.718Z,14.26
2017-08-08T01:00:33.378Z,14.12
2017-08-08T01:01:33.152Z,14.13
2017-08-08T01:02:33.428Z,14.15
2017-08-08T01:03:33.470Z,14.23
2017-08-08T01:04:33.515Z,14.15
2017-08-08T01:05:33.222Z,14.12
2017-08-08T01:06:33.876Z,14.09
2017-08-08T01:07:33.904Z,14.12
2017-08-08T01:08:33.945Z,14.13
2017-08-08T01:09:33.636Z,14.12
2017-08-08T01:10:34.041Z,14.13
2017-08-08T01:11:34.035Z,14.06
2017-08-08T01:12:34.064Z,14.06
2017-08-08T01:13:34.098Z,14.05
2017-08-08T01:14:34.161Z,14.08
2017-08-08T01:15:34.492Z,14.02
2017-08-08T01:16:34.199Z,14.01
2017-08-08T01:17:34.888Z,14.11
2017-08-08T01:18:34.894Z,14.16
2017-08-08T01:19:34.642Z,14.27
2017-08-08T01:20:34.974Z,14.3
2017-08-08T01:21:34.995Z,14.3
2017-08-08T01:22:35.045Z,14.31
2017-08-08T01:23:35.078Z,14.34
2017-08-08T01:24:35.090Z,14.28
2017-08-08T01:25:35.159Z,14.38
2017-08-08T01:26:35.175Z,14.36
2017-08-08T01:27:35.204Z,14.33
2017-08-08T01:28:35.222Z,14.33
2017-08-08T01:29:34.952Z,14.44
2017-08-08T01:30:35.312Z,14.48
2017-08-08T01:31:35.342Z,14.42
2017-08-08T01:32:35.064Z,14.28
2017-08-08T01:33:35.736Z,14.36
2017-08-08T01:34:35.190Z,14.34
2017-08-08T01:35:35.549Z,14.33
2017-08-08T01:36:35.924Z,14.28
2017-08-08T01:37:35.636Z,14.13
2017-08-08T01:38:35.703Z,14.15
2017-08-08T01:39:35.996Z,14.09
2017-08-08T01:40:36.050Z,14.13
2017-08-08T01:41:36.068Z,13.97
2017-08-08T01:42:36.111Z,14.06
2017-08-08T01:43:36.129Z,14.05
2017-08-08T01:44:35.546Z,14.03
2017-08-08T01:45:36.514Z,14.05
2017-08-08T01:46:36.533Z,14.03
2017-08-08T01:47:36.564Z,14.03
2017-08-08T01:48:36.290Z,14.06
2017-08-08T01:49:36.974Z,13.99
2017-08-08T01:50:37.597Z,14.08
2017-08-08T01:51:37.036Z,14.12
2017-08-08T01:52:37.066Z,14.11
2017-08-08T01:53:37.134Z,14.06
2017-08-08T01:54:37.141Z,14.02
2017-08-08T01:55:37.195Z,13.99
2017-08-08T01:56:37.205Z,13.93
2017-08-08T01:57:37.237Z,13.9
2017-08-08T01:58:37.276Z,13.9
2017-08-08T01:59:37.310Z,13.83
2017-08-08T02:00:37.317Z,13.78
2017-08-08T02:01:37.503Z,13.78
2017-08-08T02:02:36.772Z,13.68
2017-08-08T02:03:37.473Z,13.66
2017-08-08T02:04:37.509Z,13.69
2017-08-08T02:05:38.197Z,13.57
2017-08-08T02:06:38.218Z,13.6
2017-08-08T02:07:38.269Z,13.65
2017-08-08T02:08:38.321Z,13.72
2017-08-08T02:09:38.320Z,13.65
2017-08-08T02:10:38.347Z,13.69
2017-08-08T02:11:38.396Z,13.58
2017-08-08T02:12:38.721Z,13.6
2017-08-08T02:13:38.421Z,13.65
2017-08-08T02:14:39.045Z,13.65
2017-08-08T02:15:38.778Z,13.63
2017-08-08T02:16:39.417Z,13.57
2017-08-08T02:17:39.483Z,13.65
2017-08-08T02:18:39.490Z,13.68
2017-08-08T02:19:39.876Z,13.72
2017-08-08T02:20:39.941Z,13.65
2017-08-08T02:21:39.934Z,13.62
2017-08-08T02:22:39.354Z,13.63
2017-08-08T02:23:40.014Z,13.57
2017-08-08T02:24:40.048Z,13.65
2017-08-08T02:25:40.451Z,13.69
2017-08-08T02:26:40.419Z,13.57
2017-08-08T02:27:40.448Z,13.62
2017-08-08T02:28:40.493Z,13.65
2017-08-08T02:29:40.818Z,13.54
2017-08-08T02:30:41.209Z,13.66
2017-08-08T02:31:40.884Z,13.53
2017-08-08T02:32:40.948Z,13.53
2017-08-08T02:33:41.295Z,13.48
2017-08-08T02:34:41.314Z,13.55
2017-08-08T02:35:41.365Z,13.5
2017-08-08T02:36:41.403Z,13.57
2017-08-08T02:37:41.441Z,13.62
2017-08-08T02:38:41.474Z,13.62
2017-08-08T02:39:41.520Z,13.62
2017-08-08T02:40:41.217Z,13.54
2017-08-08T02:41:40.925Z,13.53
2017-08-08T02:42:41.615Z,13.51
2017-08-08T02:43:41.338Z,13.54
2017-08-08T02:44:41.351Z,13.47
2017-08-08T02:45:41.708Z,13.48
2017-08-08T02:46:42.018Z,13.47
2017-08-08T02:47:42.062Z,13.48
2017-08-08T02:48:42.093Z,13.51
2017-08-08T02:49:42.114Z,13.6
2017-08-08T02:50:42.498Z,13.45
2017-08-08T02:51:42.205Z,13.45
2017-08-08T02:52:42.539Z,13.47
2017-08-08T02:53:42.850Z,13.47
2017-08-08T02:54:42.606Z,13.5
2017-08-08T02:55:43.306Z,13.5
2017-08-08T02:56:43.010Z,13.47
2017-08-08T02:57:43.367Z,13.53
2017-08-08T02:58:44.039Z,13.5
2017-08-08T02:59:44.085Z,13.35
2017-08-08T03:00:43.811Z,13.31
2017-08-08T03:01:44.210Z,13.39
2017-08-08T03:02:44.208Z,13.36
2017-08-08T03:03:44.239Z,13.36
2017-08-08T03:04:44.226Z,13.29
2017-08-08T03:05:44.279Z,13.31
2017-08-08T03:06:44.298Z,13.36
2017-08-08T03:07:44.038Z,13.28
2017-08-08T03:08:44.402Z,13.31
2017-08-08T03:09:44.412Z,13.37
2017-08-08T03:10:44.431Z,13.31
2017-08-08T03:11:44.148Z,13.31
2017-08-08T03:12:44.492Z,13.24
2017-08-08T03:13:44.524Z,13.24
2017-08-08T03:14:44.556Z,13.21
2017-08-08T03:15:44.587Z,13.21
2017-08-08T03:16:44.618Z,13.19
2017-08-08T03:17:44.647Z,13.16
2017-08-08T03:18:44.689Z,13.25
2017-08-08T03:19:44.410Z,13.19
2017-08-08T03:20:44.434Z,13.16
2017-08-08T03:21:44.812Z,13.21
2017-08-08T03:22:44.535Z,13.19
2017-08-08T03:23:44.904Z,13.27
2017-08-08T03:24:45.207Z,13.19
2017-08-08T03:25:45.242Z,13.21
2017-08-08T03:26:45.275Z,13.27
2017-08-08T03:27:45.311Z,13.39
2017-08-08T03:28:45.336Z,13.19
2017-08-08T03:29:45.039Z,13.29
2017-08-08T03:30:45.430Z,13.28
2017-08-08T03:31:45.438Z,13.31
2017-08-08T03:32:45.475Z,13.2
2017-08-08T03:33:45.177Z,13.21
2017-08-08T03:34:45.537Z,13.2
2017-08-08T03:35:45.591Z,13.19
2017-08-08T03:36:45.320Z,13.14
2017-08-08T03:37:45.637Z,13.14
2017-08-08T03:38:45.701Z,13.16
2017-08-08T03:39:45.706Z,13.1
2017-08-08T03:40:45.409Z,13.16
2017-08-08T03:41:45.471Z,13.16
2017-08-08T03:42:45.508Z,13.2
2017-08-08T03:43:45.827Z,13.28
2017-08-08T03:44:45.868Z,13.21
2017-08-08T03:45:45.608Z,13.28
2017-08-08T03:46:45.944Z,13.24
2017-08-08T03:47:46.315Z,13.25
2017-08-08T03:48:46.014Z,13.31
2017-08-08T03:49:46.382Z,13.19
2017-08-08T03:50:46.426Z,13.32
2017-08-08T03:51:46.434Z,13.36
2017-08-08T03:52:46.470Z,13.31
2017-08-08T03:53:46.517Z,13.31
2017-08-08T03:54:46.534Z,13.36
2017-08-08T03:55:46.262Z,13.31
2017-08-08T03:56:46.614Z,13.28
2017-08-08T03:57:46.637Z,13.31
2017-08-08T03:58:46.687Z,13.35
2017-08-08T03:59:47.044Z,13.37
2017-08-08T04:00:47.138Z,13.29
2017-08-08T04:01:47.233Z,13.45
2017-08-08T04:02:47.214Z,13.45
2017-08-08T04:03:47.691Z,13.55
2017-08-08T04:04:47.717Z,13.53
2017-08-08T04:05:47.755Z,13.39
2017-08-08T04:06:47.777Z,13.48
2017-08-08T04:07:47.816Z,13.5
2017-08-08T04:08:47.846Z,13.45
2017-08-08T04:09:47.557Z,13.47
2017-08-08T04:10:47.924Z,13.48
2017-08-08T04:11:47.626Z,13.48
2017-08-08T04:12:47.967Z,13.5
2017-08-08T04:13:48.014Z,13.48
2017-08-08T04:14:48.034Z,13.5
2017-08-08T04:15:48.081Z,13.53
2017-08-08T04:16:48.100Z,13.5
2017-08-08T04:17:48.148Z,13.63
2017-08-08T04:18:48.169Z,13.63
2017-08-08T04:19:48.226Z,13.68
2017-08-08T04:20:48.691Z,13.69
2017-08-08T04:21:48.732Z,13.72
2017-08-08T04:22:48.428Z,13.76
2017-08-08T04:23:48.791Z,13.7
2017-08-08T04:24:48.827Z,13.88
2017-08-08T04:25:48.859Z,13.88
2017-08-08T04:26:48.887Z,13.91
2017-08-08T04:27:48.607Z,13.9
2017-08-08T04:28:49.097Z,14.03
2017-08-08T04:29:49.577Z,13.91
2017-08-08T04:30:50.076Z,14.05
2017-08-08T04:31:50.541Z,14.06
2017-08-08T04:32:50.237Z,14.03
2017-08-08T04:33:50.614Z,14.06
2017-08-08T04:34:50.638Z,14.11
2017-08-08T04:35:50.355Z,14.06
2017-08-08T04:36:50.703Z,14.09
2017-08-08T04:37:50.742Z,14.16
2017-08-08T04:38:50.461Z,14.19
2017-08-08T04:39:50.943Z,14.21
2017-08-08T04:40:52.010Z,14.23
2017-08-08T04:41:51.735Z,14.33
2017-08-08T04:42:52.312Z,14.33
2017-08-08T04:43:53.478Z,14.31
2017-08-08T04:44:53.247Z,14.45
2017-08-08T04:45:53.232Z,14.48
2017-08-08T04:46:53.578Z,14.51
2017-08-08T04:47:53.318Z,14.44
2017-08-08T04:48:53.332Z,14.61
2017-08-08T04:49:53.378Z,14.67
2017-08-08T04:50:53.545Z,14.71
2017-08-08T04:51:53.193Z,14.67
2017-08-08T04:52:53.165Z,14.79
2017-08-08T04:53:53.517Z,14.85
2017-08-08T04:54:53.509Z,14.89
2017-08-08T04:55:52.906Z,14.93
2017-08-08T04:56:53.719Z,15.08
2017-08-08T04:57:53.438Z,15.19
2017-08-08T04:58:54.060Z,15.3
2017-08-08T04:59:53.809Z,15.35
2017-08-08T05:00:53.851Z,15.49
2017-08-08T05:01:53.914Z,15.47
2017-08-08T05:02:53.910Z,15.6
2017-08-08T05:03:53.942Z,15.7
2017-08-08T05:04:53.982Z,15.68
2017-08-08T05:05:54.023Z,15.84
2017-08-08T05:06:54.049Z,15.98
2017-08-08T05:07:54.077Z,15.96
2017-08-08T05:08:54.110Z,16.16
2017-08-08T05:09:53.814Z,16.16
2017-08-08T05:10:54.168Z,16.26
2017-08-08T05:11:53.899Z,16.3
2017-08-08T05:12:54.707Z,16.29
2017-08-08T05:13:54.752Z,16.34
2017-08-08T05:14:54.455Z,16.4
2017-08-08T05:15:54.824Z,16.44
2017-08-08T05:16:55.291Z,16.39
2017-08-08T05:17:55.314Z,16.39
2017-08-08T05:18:55.360Z,16.42
2017-08-08T05:19:55.058Z,16.37
2017-08-08T05:20:55.528Z,16.39
2017-08-08T05:21:55.550Z,16.37
2017-08-08T05:22:55.601Z,16.42
2017-08-08T05:23:55.631Z,16.48
2017-08-08T05:24:55.472Z,16.47
2017-08-08T05:25:55.967Z,16.44
2017-08-08T05:26:56.329Z,16.55
2017-08-08T05:27:56.356Z,16.55
2017-08-08T05:28:56.396Z,16.57
2017-08-08T05:29:56.411Z,16.65
2017-08-08T05:30:56.129Z,16.72
2017-08-08T05:31:56.486Z,16.87
2017-08-08T05:32:56.522Z,16.82
2017-08-08T05:33:56.543Z,16.91
2017-08-08T05:34:56.583Z,17.05
2017-08-08T05:35:57.059Z,17.13
2017-08-08T05:36:57.083Z,17.21
2017-08-08T05:37:57.127Z,17.31
2017-08-08T05:38:57.155Z,17.46
2017-08-08T05:39:57.185Z,17.52
2017-08-08T05:40:57.230Z,17.6
2017-08-08T05:41:57.262Z,17.66
2017-08-08T05:42:57.756Z,18.01
2017-08-08T05:43:57.777Z,18.23
2017-08-08T05:44:57.821Z,18.41
2017-08-08T05:45:57.533Z,18.41
2017-08-08T05:46:57.563Z,18.54
2017-08-08T05:47:57.924Z,18.66
2017-08-08T05:48:57.947Z,19
2017-08-08T05:49:57.984Z,19.28
2017-08-08T05:50:58.032Z,19.55
2017-08-08T05:51:58.082Z,19.7
2017-08-08T05:52:58.089Z,19.63
2017-08-08T05:53:58.569Z,19.78
2017-08-08T05:54:58.612Z,19.78
2017-08-08T05:55:58.642Z,19.72
2017-08-08T05:56:58.684Z,19.72
2017-08-08T05:57:59.182Z,19.95
2017-08-08T05:58:59.217Z,20.1
2017-08-08T05:59:59.242Z,20.18
2017-08-08T06:00:59.281Z,20.19
2017-08-08T06:01:59.305Z,20.11
2017-08-08T06:02:59.359Z,20.01
2017-08-08T06:03:59.383Z,19.86
2017-08-08T06:04:59.087Z,19.85
2017-08-08T06:05:59.469Z,19.86
2017-08-08T06:06:59.175Z,19.83
2017-08-08T06:07:59.529Z,19.9
2017-08-08T06:08:59.562Z,20.01
2017-08-08T06:09:59.605Z,20.08
2017-08-08T06:10:59.310Z,20.3
2017-08-08T06:11:59.684Z,20.38
2017-08-08T06:12:59.701Z,20.6
2017-08-08T06:13:59.406Z,20.93
2017-08-08T06:14:59.916Z,21.21
2017-08-08T06:16:00.293Z,21.96
2017-08-08T06:16:59.655Z,22.63
2017-08-08T06:18:00.469Z,22.94
2017-08-08T06:19:00.502Z,23.25
2017-08-08T06:20:00.536Z,23.57
2017-08-08T06:21:00.586Z,24.09
2017-08-08T06:22:00.613Z,24.45
2017-08-08T06:23:00.650Z,24.87
2017-08-08T06:24:01.144Z,24.94
2017-08-08T06:25:01.191Z,25.09
2017-08-08T06:26:01.210Z,25.27
2017-08-08T06:27:01.257Z,25.64
2017-08-08T06:28:00.970Z,25.76
2017-08-08T06:29:01.320Z,26.04
2017-08-08T06:30:01.808Z,26.44
2017-08-08T06:31:01.832Z,26.94
2017-08-08T06:32:01.886Z,27.04
2017-08-08T06:33:01.908Z,27.11
2017-08-08T06:34:01.953Z,27.11
2017-08-08T06:35:01.991Z,27.27
2017-08-08T06:36:02.011Z,27.59
2017-08-08T06:37:02.072Z,27.84
2017-08-08T06:38:02.105Z,28.2
2017-08-08T06:39:02.148Z,28.43
2017-08-08T06:40:01.879Z,28.49
2017-08-08T06:41:02.227Z,28.6
2017-08-08T06:42:02.258Z,28.97
2017-08-08T06:43:02.303Z,29.2
2017-08-08T06:44:02.345Z,29.28
2017-08-08T06:45:02.384Z,29.28
2017-08-08T06:46:02.421Z,28.86
2017-08-08T06:47:02.465Z,28.54
2017-08-08T06:48:02.193Z,28.46
2017-08-08T06:49:02.536Z,28.36
2017-08-08T06:50:02.575Z,28.24
2017-08-08T06:51:02.620Z,28.51
2017-08-08T06:52:02.647Z,28.8
2017-08-08T06:53:02.722Z,29.6
2017-08-08T06:54:02.736Z,30.44
2017-08-08T06:55:02.781Z,31.04
2017-08-08T06:56:02.841Z,31.01
2017-08-08T06:57:02.869Z,30.34
2017-08-08T06:58:02.593Z,29.51
2017-08-08T06:59:02.699Z,28.83
2017-08-08T07:00:03.358Z,28.48
2017-08-08T07:01:02.840Z,28.72
2017-08-08T07:02:02.734Z,28.94
2017-08-08T07:03:02.455Z,28.98
2017-08-08T07:04:03.291Z,28.97
2017-08-08T07:05:03.316Z,28.97
2017-08-08T07:06:03.016Z,28.98
2017-08-08T07:07:03.942Z,29.3
2017-08-08T07:08:03.964Z,29.47
2017-08-08T07:09:03.951Z,29.66
2017-08-08T07:10:03.651Z,29.75
2017-08-08T07:11:04.149Z,29.57
2017-08-08T07:12:04.500Z,29.63
2017-08-08T07:13:04.546Z,29.79
2017-08-08T07:14:04.585Z,30.09
2017-08-08T07:15:04.357Z,30.31
2017-08-08T07:16:04.671Z,30.62
2017-08-08T07:17:04.699Z,31
2017-08-08T07:18:04.740Z,31.26
2017-08-08T07:19:04.788Z,30.79
2017-08-08T07:20:04.529Z,30.42
2017-08-08T07:21:04.868Z,30.57
2017-08-08T07:22:04.585Z,30.97
2017-08-08T07:23:04.720Z,31.62
2017-08-08T07:24:05.104Z,31.97
2017-08-08T07:25:05.732Z,32.35
2017-08-08T07:26:05.355Z,32.69
2017-08-08T07:27:05.368Z,32.81
2017-08-08T07:28:05.409Z,32.93
2017-08-08T07:29:06.243Z,33.02
2017-08-08T07:30:06.988Z,33.44
2017-08-08T07:31:06.749Z,34
2017-08-08T07:32:06.490Z,34.45
2017-08-08T07:33:07.310Z,34.49
2017-08-08T07:34:07.814Z,34.19
2017-08-08T07:35:07.334Z,34.26
2017-08-08T07:36:08.027Z,34.69
2017-08-08T07:37:08.378Z,34.93
2017-08-08T07:38:08.428Z,34.81
2017-08-08T07:39:08.470Z,34.63
2017-08-08T07:40:08.174Z,34.48
2017-08-08T07:41:08.242Z,34.41
2017-08-08T07:42:09.068Z,34.49
2017-08-08T07:43:09.074Z,34.79
2017-08-08T07:44:09.162Z,35.23
2017-08-08T07:45:08.980Z,35.74
2017-08-08T07:46:09.232Z,36.39
2017-08-08T07:47:09.279Z,37.02
2017-08-08T07:48:09.325Z,37.45
2017-08-08T07:49:09.358Z,37.72
2017-08-08T07:50:09.143Z,37.65
2017-08-08T07:51:09.445Z,37.53
2017-08-08T07:52:09.479Z,37.48
2017-08-08T07:53:09.544Z,37.02
2017-08-08T07:54:09.269Z,36.8
2017-08-08T07:55:09.843Z,36.44
2017-08-08T07:56:10.191Z,36.37
2017-08-08T07:57:09.577Z,36.34
2017-08-08T07:58:10.035Z,36.33
2017-08-08T07:59:10.535Z,36.56
2017-08-08T08:00:10.937Z,36.47
2017-08-08T08:01:11.062Z,36.34
2017-08-08T08:02:10.821Z,35.92
2017-08-08T08:03:10.821Z,35.68
2017-08-08T08:04:10.885Z,35.65
2017-08-08T08:05:11.303Z,36.01
2017-08-08T08:06:11.275Z,36.47
2017-08-08T08:07:11.327Z,36.7
2017-08-08T08:08:11.375Z,36.77
2017-08-08T08:09:11.415Z,36.71
2017-08-08T08:10:11.452Z,36.21
2017-08-08T08:11:11.501Z,35.61
2017-08-08T08:12:11.542Z,35.47
2017-08-08T08:13:11.590Z,34.94
2017-08-08T08:14:11.625Z,34.33
2017-08-08T08:15:11.670Z,33.84
2017-08-08T08:16:11.412Z,33.74
2017-08-08T08:17:12.202Z,34.17
2017-08-08T08:18:12.253Z,34.54
2017-08-08T08:19:12.302Z,34.69
2017-08-08T08:20:12.011Z,34.4
2017-08-08T08:21:12.384Z,34.46
2017-08-08T08:22:12.110Z,34.58
2017-08-08T08:23:12.138Z,34.58
2017-08-08T08:24:12.181Z,34.49
2017-08-08T08:25:12.548Z,34.54
2017-08-08T08:26:12.598Z,34.39
2017-08-08T08:27:11.992Z,34.36
2017-08-08T08:28:13.117Z,34.4
2017-08-08T08:29:12.832Z,34.81
2017-08-08T08:30:13.192Z,34.56
2017-08-08T08:31:13.253Z,34.24
2017-08-08T08:32:13.331Z,33.92
2017-08-08T08:33:13.332Z,33.84
2017-08-08T08:34:13.378Z,33.95
2017-08-08T08:35:13.110Z,33.93
2017-08-08T08:36:13.466Z,33.95
2017-08-08T08:37:13.505Z,34.05
2017-08-08T08:38:13.550Z,33.87
2017-08-08T08:39:13.593Z,33.47
2017-08-08T08:40:13.323Z,33.23
2017-08-08T08:41:13.680Z,33.26
2017-08-08T08:42:13.413Z,33.59
2017-08-08T08:43:13.767Z,33.83
2017-08-08T08:44:13.813Z,33.73
2017-08-08T08:45:13.853Z,34.14
2017-08-08T08:46:13.594Z,34.22
2017-08-08T08:47:14.091Z,34.75
2017-08-08T08:48:14.456Z,34.91
2017-08-08T08:49:14.484Z,35.16
2017-08-08T08:50:14.531Z,35.31
2017-08-08T08:51:14.577Z,34.87
2017-08-08T08:52:14.318Z,34.89
2017-08-08T08:53:14.486Z,35.23
2017-08-08T08:54:14.557Z,34.87
2017-08-08T08:55:14.910Z,34.41
2017-08-08T08:56:14.929Z,33.56
2017-08-08T08:57:14.975Z,32.75
2017-08-08T08:58:14.698Z,32.06
2017-08-08T08:59:15.182Z,32.31
2017-08-08T09:00:15.219Z,33.13
2017-08-08T09:01:15.318Z,34.26
2017-08-08T09:02:15.797Z,34.94
2017-08-08T09:03:15.188Z,35.38
2017-08-08T09:04:16.320Z,35.74
2017-08-08T09:05:16.362Z,35.68
2017-08-08T09:06:16.087Z,35.69
2017-08-08T09:07:16.444Z,35.58
2017-08-08T09:08:16.165Z,35.79
2017-08-08T09:09:16.228Z,35.39
2017-08-08T09:10:16.268Z,35.28
2017-08-08T09:11:16.319Z,35.27
2017-08-08T09:12:16.483Z,34.9
2017-08-08T09:13:16.993Z,34.64
2017-08-08T09:14:17.027Z,34.78
2017-08-08T09:15:17.072Z,35.2
2017-08-08T09:16:16.777Z,35.74
2017-08-08T09:17:16.835Z,36.14
2017-08-08T09:18:17.358Z,35.99
2017-08-08T09:19:17.084Z,36.26
2017-08-08T09:20:17.443Z,36.52
2017-08-08T09:21:16.844Z,36.32
2017-08-08T09:22:17.642Z,36.52
2017-08-08T09:23:17.696Z,36.67
2017-08-08T09:24:18.175Z,36.39
2017-08-08T09:25:18.222Z,36.15
2017-08-08T09:26:17.948Z,36.05
2017-08-08T09:27:18.788Z,36.08
2017-08-08T09:28:18.830Z,36.63
2017-08-08T09:29:18.874Z,36.61
2017-08-08T09:30:18.912Z,37.08
2017-08-08T09:31:18.643Z,37.79
2017-08-08T09:32:19.465Z,38.12
2017-08-08T09:33:19.517Z,37.69
2017-08-08T09:34:19.570Z,37.24
2017-08-08T09:35:19.615Z,37.17
2017-08-08T09:36:19.337Z,36.8
2017-08-08T09:37:19.710Z,36.04
2017-08-08T09:38:19.748Z,35.57
2017-08-08T09:39:19.779Z,35.05
2017-08-08T09:40:19.843Z,34.93
2017-08-08T09:41:19.880Z,35.08
2017-08-08T09:42:19.930Z,35.24
2017-08-08T09:43:19.653Z,34.91
2017-08-08T09:44:20.475Z,34.74
2017-08-08T09:45:20.984Z,34.06
2017-08-08T09:46:21.005Z,33.84
2017-08-08T09:47:20.745Z,33.84
2017-08-08T09:48:21.092Z,33.74
2017-08-08T09:49:21.139Z,33.85
2017-08-08T09:50:21.737Z,34.1
2017-08-08T09:51:22.250Z,34.36
2017-08-08T09:52:22.284Z,34.34
2017-08-08T09:53:22.333Z,34.61
2017-08-08T09:54:22.368Z,34.78
2017-08-08T09:55:22.522Z,34.41
2017-08-08T09:56:22.464Z,34.19
2017-08-08T09:57:22.520Z,33.96
2017-08-08T09:58:22.239Z,33.58
2017-08-08T09:59:22.293Z,33.29
2017-08-08T10:00:22.335Z,32.99
2017-08-08T10:01:22.385Z,32.61
2017-08-08T10:02:22.403Z,32.15
2017-08-08T10:03:22.918Z,31.82
2017-08-08T10:04:22.952Z,31.88
2017-08-08T10:05:23.471Z,32.28
2017-08-08T10:06:23.483Z,32.8
2017-08-08T10:07:23.962Z,33.34
2017-08-08T10:08:24.019Z,33.81
2017-08-08T10:09:24.043Z,34.18
2017-08-08T10:10:23.776Z,34.11
2017-08-08T10:11:24.909Z,34.29
2017-08-08T10:12:24.644Z,34.87
2017-08-08T10:13:25.433Z,35.4
2017-08-08T10:14:25.489Z,34.49
2017-08-08T10:15:25.522Z,33.78
2017-08-08T10:16:25.245Z,33.74
2017-08-08T10:17:25.709Z,33.68
2017-08-08T10:18:26.194Z,33.71
2017-08-08T10:19:26.229Z,33.44
2017-08-08T10:20:25.944Z,33.52
2017-08-08T10:21:26.325Z,33.48
2017-08-08T10:22:26.041Z,33.39
2017-08-08T10:23:26.878Z,32.96
2017-08-08T10:24:26.936Z,32.86
2017-08-08T10:25:26.960Z,32.62
2017-08-08T10:26:27.004Z,32.47
2017-08-08T10:27:26.400Z,32.5
2017-08-08T10:28:27.088Z,32.68
2017-08-08T10:29:27.134Z,33.09
2017-08-08T10:30:27.174Z,33.16
2017-08-08T10:31:27.325Z,33.06
2017-08-08T10:32:28.142Z,33.43
2017-08-08T10:33:28.625Z,33.71
2017-08-08T10:34:28.656Z,33.63
2017-08-08T10:35:28.701Z,33.61
2017-08-08T10:36:28.747Z,34.19
2017-08-08T10:37:28.789Z,35.16
2017-08-08T10:38:28.512Z,35.42
2017-08-08T10:39:29.323Z,35.3
2017-08-08T10:40:29.378Z,34.97
2017-08-08T10:41:29.400Z,34.45
2017-08-08T10:42:29.451Z,33.68
2017-08-08T10:43:29.498Z,32.96
2017-08-08T10:44:29.207Z,32.61
2017-08-08T10:45:29.562Z,32.65
2017-08-08T10:46:30.040Z,32.52
2017-08-08T10:47:30.084Z,32.15
2017-08-08T10:48:30.126Z,31.59
2017-08-08T10:49:30.160Z,31.01
2017-08-08T10:50:30.207Z,30.64
2017-08-08T10:51:30.246Z,30.25
2017-08-08T10:52:29.960Z,30.19
2017-08-08T10:53:30.522Z,30.13
2017-08-08T10:54:30.534Z,30.25
2017-08-08T10:55:30.226Z,30.34
2017-08-08T10:56:30.581Z,30.57
2017-08-08T10:57:30.640Z,30.75
2017-08-08T10:58:30.669Z,30.93
2017-08-08T10:59:30.384Z,30.99
2017-08-08T11:00:30.752Z,30.88
2017-08-08T11:01:30.796Z,30.45
2017-08-08T11:02:30.835Z,30.14
2017-08-08T11:03:30.545Z,29.73
2017-08-08T11:04:31.044Z,29.54
2017-08-08T11:05:30.753Z,29.54
2017-08-08T11:06:31.107Z,29.51
2017-08-08T11:07:31.148Z,29.61
2017-08-08T11:08:31.197Z,29.87
2017-08-08T11:09:31.237Z,29.89
2017-08-08T11:10:31.281Z,29.91
2017-08-08T11:11:31.003Z,30
2017-08-08T11:12:31.352Z,29.89
2017-08-08T11:13:31.394Z,29.57
2017-08-08T11:14:31.126Z,29.28
2017-08-08T11:15:31.938Z,28.98
2017-08-08T11:16:32.107Z,28.97
2017-08-08T11:17:32.143Z,28.86
2017-08-08T11:18:31.855Z,28.7
2017-08-08T11:19:32.653Z,28.41
2017-08-08T11:20:33.147Z,28.39
2017-08-08T11:21:32.879Z,28.51
2017-08-08T11:22:33.356Z,28.46
2017-08-08T11:23:33.060Z,28.7
2017-08-08T11:24:33.547Z,28.85
2017-08-08T11:25:33.559Z,29.01
2017-08-08T11:26:33.290Z,29.03
2017-08-08T11:27:33.666Z,28.76
2017-08-08T11:28:33.364Z,28.75
2017-08-08T11:29:33.734Z,28.73
2017-08-08T11:30:33.910Z,28.7
2017-08-08T11:31:33.940Z,28.72
2017-08-08T11:32:33.993Z,28.7
2017-08-08T11:33:34.007Z,28.54
2017-08-08T11:34:34.124Z,28.24
2017-08-08T11:35:34.405Z,28.14
2017-08-08T11:36:34.147Z,27.87
2017-08-08T11:37:33.860Z,27.69
2017-08-08T11:38:34.216Z,27.71
2017-08-08T11:39:34.254Z,27.8
2017-08-08T11:40:33.980Z,27.75
2017-08-08T11:41:34.332Z,27.89
2017-08-08T11:42:34.063Z,27.93
2017-08-08T11:43:34.408Z,27.98
2017-08-08T11:44:34.452Z,27.94
2017-08-08T11:45:34.483Z,28.08
2017-08-08T11:46:34.990Z,28.08
2017-08-08T11:47:35.016Z,28.11
2017-08-08T11:48:35.054Z,28.24
2017-08-08T11:49:35.105Z,28.39
2017-08-08T11:50:35.150Z,28.54
2017-08-08T11:51:34.861Z,28.61
2017-08-08T11:52:35.383Z,28.43
2017-08-08T11:53:36.212Z,28.33
2017-08-08T11:54:36.252Z,28.3
2017-08-08T11:55:36.293Z,28.24
2017-08-08T11:56:36.334Z,28.31
2017-08-08T11:57:36.371Z,28.26
2017-08-08T11:58:36.098Z,28.39
2017-08-08T11:59:36.452Z,28.43
2017-08-08T12:00:36.160Z,28.53
2017-08-08T12:01:36.539Z,28.53
2017-08-08T12:02:36.580Z,28.55
2017-08-08T12:03:36.604Z,28.46
2017-08-08T12:04:36.647Z,28.45
2017-08-08T12:05:36.683Z,28.3
2017-08-08T12:06:36.400Z,28.12
2017-08-08T12:07:37.216Z,28.03
2017-08-08T12:08:37.253Z,27.93
2017-08-08T12:09:37.289Z,27.84
2017-08-08T12:10:38.718Z,27.8
2017-08-08T12:11:37.148Z,27.65
2017-08-08T12:12:37.093Z,27.62
2017-08-08T12:13:37.522Z,27.43
2017-08-08T12:14:37.601Z,27.26
2017-08-08T12:15:37.645Z,27.31
2017-08-08T12:16:37.811Z,27.18
2017-08-08T12:17:37.541Z,27.08
2017-08-08T12:18:37.571Z,27.04
2017-08-08T12:19:37.608Z,27.06
2017-08-08T12:20:38.058Z,27.01
2017-08-08T12:21:38.435Z,27.01
2017-08-08T12:22:38.136Z,27.13
2017-08-08T12:23:38.645Z,27.24
2017-08-08T12:24:38.786Z,27.38
2017-08-08T12:25:38.782Z,27.46
2017-08-08T12:26:39.049Z,27.52
2017-08-08T12:27:38.845Z,27.46
2017-08-08T12:28:38.843Z,27.48
2017-08-08T12:29:39.008Z,27.37
2017-08-08T12:30:39.359Z,27.21
2017-08-08T12:31:39.434Z,27.23
2017-08-08T12:32:39.441Z,27.13
2017-08-08T12:33:39.472Z,27.13
2017-08-08T12:34:39.522Z,27.06
2017-08-08T12:35:39.562Z,27
2017-08-08T12:36:39.282Z,26.86
2017-08-08T12:37:39.750Z,26.94
2017-08-08T12:38:39.480Z,27.01
2017-08-08T12:39:39.514Z,27.05
2017-08-08T12:40:39.544Z,27.01
2017-08-08T12:41:40.059Z,27.04
2017-08-08T12:42:40.247Z,27.09
2017-08-08T12:43:40.604Z,27.11
2017-08-08T12:44:40.638Z,27.09
2017-08-08T12:45:40.678Z,26.97
2017-08-08T12:46:40.407Z,26.89
2017-08-08T12:47:40.438Z,26.84
2017-08-08T12:48:40.618Z,26.81
2017-08-08T12:49:40.658Z,26.81
2017-08-08T12:50:41.015Z,26.87
2017-08-08T12:51:41.058Z,26.9
2017-08-08T12:52:41.086Z,26.94
2017-08-08T12:53:41.123Z,26.96
2017-08-08T12:54:41.185Z,27.01
2017-08-08T12:55:40.876Z,27.04
2017-08-08T12:56:41.274Z,27.05